aviador You're here:

KJAN Decoded Metar

JACKSON in MS, USA
Report Time2017-09-23 19:54:00
UTC Time2017-09-23 20:11:34
Flight Rules vfr VFR
WindVRB at 04 kt
Visibility9999 m
Phenomena:N/A
Clouds:Few 050 Hf
Expected CloudBase > 5,200 ft AGL from Temp-Dew spread
CeilingNone
Temp33°C (ISA +19)
Dew Point20°C (46% RH)
Heat Index35.2°C
QNH1014 hPa
Density Alt2,694 ft
Elevation299 ft
Report Wrong Elevation
Raw Report
KJAN 231954Z VRB04KT 10SM FEW050 33/20 A2995 RMK AO2 SLP137
T03280200=

Extra information for KJAN:More info

Metar Taf Metar & Taf Last 4 Metars F.Rules Stats Wind Profile Meteogram Temp Stats Airport Information Weather charts Add Link Nearby VenuesMetar ALERT Operation Metar Decoded Social comments

AIRNAV info for KJAN